Lyons, Wisconsin
Current Conditions -  °F | °C
As of 3:55 PM on Thursday 27 Nov 2014 (Local Time) from KBUU Reporting Station
Light Snow Light Snow  
Wind Chill:   Ceiling: 2800
Heat Index: 17°   Visibility: 10mi
Dew Point: 11°   Wind: 9mph
Humidity: 80%   Direction: 300°WNW
Pressure: 30.38"   Gusts: NA
Location:  42.65°N, 88.36°W
Report Text: KBUU 272155Z AUTO 30008KT 10SM -SN OVC028 M08/M11 A3038 RMK AO2 T10851114
Loading
Personal Weather Stations






























Interactive Weather Map New forecast layout! Learn more

10-Day Weather Forecast

Advertisements
Track Severe Weather on mobile